Flight Track Log - Related Links

Times and Time Zones

All times are in EDT time to prevent confusion due to time zone crossing. See the SWA2166 flight status page for this flight to view local times or setup timezone preferences in your user account.


Time Position Orientation Groundspeed Altitude Reporting Facility
EDT Latitude Longitude Course Direction KTS MPH feet Rate Location/Type
Sat 06:39:40 PM 36.0753 -115.1153 90° East 150 173 3,100  Level Los Angeles Center
Sat 06:40:34 PM 36.0750 -115.0542 90° East 205 236 4,400 1,579 Climbing Los Angeles Center
Sat 06:41:15 PM 36.0769 -115.0106 87° East 205 236 5,600 2,361 Climbing Los Angeles Center
Sat 06:41:35 PM 36.0753 -114.9661 93° East 274 315 6,800 1,935 Climbing Los Angeles Center
Sat 06:42:17 PM 36.0719 -114.9108 94° East 273 314 7,600 2,481 Climbing Los Angeles Center
Sat 06:43:19 PM 36.0519 -114.7883 101° East 302 348 11,100 3,194 Climbing Los Angeles Center
Sat 06:44:21 PM 36.0344 -114.6681 100° East 351 404 14,200 2,661 Climbing Los Angeles Center
Sat 06:45:00 PM 35.8833 -114.3248 90° East  Level FlightAware Approximate
Sat 06:45:23 PM 36.0164 -114.5417 100° East 372 428 16,600  Level Los Angeles Center
Sat 06:46:25 PM 35.9964 -114.4039 100° East 402 463 19,300 2,439 Climbing Los Angeles Center
Sat 06:47:26 PM 35.9756 -114.2628 100° East 417 480 21,600 2,146 Climbing Los Angeles Center
Sat 06:48:28 PM 35.9542 -114.1139 100° East 436 502 23,700 1,887 Climbing Los Angeles Center
Sat 06:49:30 PM 35.9308 -113.9594 101° East 454 522 25,500 1,887 Climbing Los Angeles Center
Sat 06:50:32 PM 35.9036 -113.7644 100° East 478 550 27,600 1,839 Climbing Los Angeles Center
Sat 06:51:34 PM 35.9047 -113.5981 89° East 485 558 29,300 1,512 Climbing Los Angeles Center
Sat 06:52:35 PM 35.9033 -113.4536 91° East 491 565 30,700 829 Climbing Los Angeles Center
Sat 06:53:37 PM 35.9011 -113.2450 91° East 504 580 31,000 145 Climbing Los Angeles Center
Sat 06:54:39 PM 35.9008 -113.0719 90° East 505 581 31,000  Level Los Angeles Center
Sat 06:55:41 PM 35.8994 -112.9011 91° East 499 574 31,000 49 Level Los Angeles Center
Sat 06:56:42 PM 35.8969 -112.7289 91° East 500 575 31,100 829 Climbing Los Angeles Center
Sat 06:57:44 PM 35.8939 -112.5556 91° East 503 579 32,700 1,355 Climbing Los Angeles Center
Sat 06:58:46 PM 35.8917 -112.3817 91° East 507 583 33,900 1,161 Climbing Los Angeles Center
Sat 06:59:48 PM 35.8892 -112.2050 91° East 512 589 35,100 1,113 Climbing Los Angeles Center
Sat 07:00:50 PM 35.8856 -112.0289 91° East 515 593 36,200 927 Climbing Los Angeles Center
Sat 07:01:51 PM 35.8789 -111.8142 92° East 522 601 37,000 615 Climbing Los Angeles Center
Sat 07:02:08 PM 35.8797 -111.7769 88° East 520 598 37,000  Level Denver Center
Sat 07:02:53 PM 35.8747 -111.6378 92° East 519 597 37,000  Level Los Angeles Center
Sat 07:03:09 PM 35.8753 -111.6025 89° East 514 592 37,000  Level Denver Center
Sat 07:04:12 PM 35.8711 -111.4294 92° East 514 592 37,000  Level Albuquerque Center
Sat 07:05:14 PM 35.8664 -111.2208 92° East 510 587 37,000  Level Albuquerque Center
Sat 07:06:15 PM 35.8611 -111.0417 92° East 509 586 37,000  Level Albuquerque Center
Sat 07:07:16 PM 35.8550 -110.8739 93° East 510 587 37,000  Level Albuquerque Center
Sat 07:08:17 PM 35.8503 -110.7081 92° East 508 585 37,000  Level Albuquerque Center
Sat 07:09:19 PM 35.8447 -110.5147 92° East 507 583 37,000  Level Albuquerque Center
Sat 07:10:20 PM 35.8392 -110.3475 92° East 508 585 37,000  Level Albuquerque Center
Sat 07:11:21 PM 35.8317 -110.1542 93° East 507 583 37,000  Level Albuquerque Center
Sat 07:12:22 PM 35.8253 -109.9881 93° East 507 583 37,000  Level Albuquerque Center
Sat 07:13:24 PM 35.8214 -109.8225 92° East 506 582 37,000  Level Albuquerque Center
Sat 07:14:25 PM 35.8136 -109.6292 93° East 507 583 37,000  Level Albuquerque Center
Sat 07:15:26 PM 35.8069 -109.4622 93° East 509 586 37,000  Level Albuquerque Center
Sat 07:16:27 PM 35.7992 -109.2658 93° East 515 593 37,000  Level Albuquerque Center
Sat 07:17:28 PM 35.7917 -109.0997 93° East 512 589 37,000  Level Albuquerque Center
Sat 07:18:29 PM 35.7836 -108.9347 93° East 512 589 37,000  Level Albuquerque Center
Sat 07:19:31 PM 35.7756 -108.7439 93° East 506 582 37,000  Level Albuquerque Center
Sat 07:20:32 PM 35.7683 -108.5808 93° East 505 581 37,000  Level Albuquerque Center
Sat 07:21:33 PM 35.7575 -108.3881 94° East 506 582 37,000  Level Albuquerque Center
Sat 07:22:34 PM 35.7497 -108.2222 93° East 508 585 37,000  Level Albuquerque Center
Sat 07:23:35 PM 35.7408 -108.0572 94° East 509 586 37,000  Level Albuquerque Center
Sat 07:24:36 PM 35.7297 -107.8642 94° East 507 583 37,000  Level Albuquerque Center
Sat 07:25:38 PM 35.7194 -107.6978 94° East 508 585 37,000  Level Albuquerque Center
Sat 07:26:39 PM 35.7086 -107.5050 94° East 508 585 37,000  Level Albuquerque Center
Sat 07:27:40 PM 35.7000 -107.3389 94° East 508 585 37,000  Level Albuquerque Center
Sat 07:28:41 PM 35.6906 -107.1736 94° East 507 583 37,000  Level Albuquerque Center
Sat 07:29:42 PM 35.6792 -106.9792 94° East 509 586 37,000  Level Albuquerque Center
Sat 07:30:43 PM 35.6683 -106.8103 94° East 514 592 37,000  Level Albuquerque Center
Sat 07:31:45 PM 35.6578 -106.6131 94° East 519 597 37,000  Level Albuquerque Center
Sat 07:32:46 PM 35.6511 -106.4436 93° East 520 598 37,000  Level Albuquerque Center
Sat 07:33:47 PM 35.6492 -106.2753 91° East 516 594 37,000  Level Albuquerque Center
Sat 07:34:48 PM 35.6436 -106.0939 92° East 521 600 37,000  Level Albuquerque Center
Sat 07:35:49 PM 35.6411 -105.9186 91° East 515 593 37,000  Level Albuquerque Center
Sat 07:36:50 PM 35.6364 -105.7369 92° East 512 589 37,000  Level Albuquerque Center
Sat 07:37:51 PM 35.6314 -105.5586 92° East 515 593 37,000  Level Albuquerque Center
Sat 07:38:53 PM 35.6228 -105.3872 93° East 502 578 37,000  Level Albuquerque Center
Sat 07:39:54 PM 35.6178 -105.2131 92° East 504 580 37,000  Level Albuquerque Center
Sat 07:40:55 PM 35.6128 -105.0389 92° East 504 580 37,000  Level Albuquerque Center
Sat 07:41:56 PM 35.6089 -104.8642 92° East 505 581 37,000  Level Albuquerque Center
Sat 07:42:57 PM 35.6025 -104.6894 93° East 507 583 37,000  Level Albuquerque Center
Sat 07:43:58 PM 35.5964 -104.5147 92° East 505 581 37,000  Level Albuquerque Center
Sat 07:44:59 PM 35.5914 -104.3403 92° East 504 580 37,000  Level Albuquerque Center
Sat 07:46:00 PM 35.5850 -104.1631 92° East 507 583 37,000  Level Albuquerque Center
Sat 07:47:02 PM 35.5781 -103.9853 93° East 511 588 37,000  Level Albuquerque Center
Sat 07:48:03 PM 35.5714 -103.8081 93° East 511 588 37,000  Level Albuquerque Center
Sat 07:49:04 PM 35.5625 -103.6311 93° East 512 589 37,000  Level Albuquerque Center
Sat 07:50:05 PM 35.5553 -103.4550 93° East 512 589 37,000 393 Level Albuquerque Center
Sat 07:51:06 PM 35.5467 -103.2461 93° East 518 596 37,800 976 Climbing Albuquerque Center
Sat 07:52:08 PM 35.5372 -103.0678 94° East 519 597 39,000 585 Climbing Albuquerque Center
Sat 07:53:09 PM 35.5283 -102.8911 93° East 515 593 39,000  Level Albuquerque Center
Sat 07:54:10 PM 35.5211 -102.7164 93° East 510 587 39,000  Level Albuquerque Center
Sat 07:55:12 PM 35.5114 -102.5542 94° East 511 588 39,000  Level Albuquerque Center
Sat 07:56:13 PM 35.5031 -102.3822 93° East 506 582 39,000  Level Albuquerque Center
Sat 07:57:14 PM 35.4939 -102.2092 94° East 508 585 39,000  Level Albuquerque Center
Sat 07:58:15 PM 35.4836 -102.0350 94° East 510 587 39,000  Level Albuquerque Center
Sat 07:59:17 PM 35.4783 -101.8417 92° East 511 588 39,000  Level Albuquerque Center
Sat 08:00:18 PM 35.4697 -101.6661 93° East 511 588 39,000  Level Albuquerque Center
Sat 08:01:19 PM 35.4553 -101.4856 96° East 513 590 39,000  Level Albuquerque Center
Sat 08:02:21 PM 35.4422 -101.2922 95° East 514 592 39,000  Level Albuquerque Center
Sat 08:03:22 PM 35.4306 -101.1169 95° East 515 593 39,000  Level Albuquerque Center
Sat 08:04:24 PM 35.4211 -100.9428 94° East 513 590 39,000  Level Albuquerque Center
Sat 08:05:25 PM 35.4094 -100.7694 95° East 510 587 39,000  Level Albuquerque Center
Sat 08:06:26 PM 35.3981 -100.6139 95° East 512 589 39,000  Level Albuquerque Center
Sat 08:07:28 PM 35.3869 -100.4419 94° East 508 585 39,000  Level Albuquerque Center
Sat 08:08:29 PM 35.3717 -100.2378 95° East 503 579 39,000  Level Albuquerque Center
Sat 08:09:31 PM 35.3606 -100.0669 95° East 503 579 39,000  Level Albuquerque Center
Sat 08:10:32 PM 35.3472 -99.8983 95° East 500 575 39,000  Level Albuquerque Center
Sat 08:11:33 PM 35.3358 -99.7283 95° East 501 577 39,000  Level Albuquerque Center
Sat 08:12:35 PM 35.3217 -99.5578 96° East 504 580 39,000  Level Albuquerque Center
Sat 08:13:36 PM 35.3094 -99.3864 95° East 506 582 39,000  Level Albuquerque Center
Sat 08:14:27 PM 35.2931 -99.2194 97° East 500 575 39,000  Level Fort Worth Center
Sat 08:15:27 PM 35.2808 -99.0486 95° East 500 575 39,000  Level Fort Worth Center
Sat 08:16:27 PM 35.2661 -98.8781 96° East 500 575 39,000  Level Fort Worth Center
Sat 08:17:27 PM 35.2536 -98.7075 95° East 500 575 39,000  Level Fort Worth Center
Sat 08:18:27 PM 35.2364 -98.5422 97° East 500 575 39,000  Level Fort Worth Center
Sat 08:19:27 PM 35.2231 -98.3767 96° East 494 568 39,000  Level Fort Worth Center
Sat 08:20:27 PM 35.2097 -98.2064 95° East 494 568 39,000  Level Fort Worth Center
Sat 08:21:27 PM 35.1939 -98.0386 97° East 499 574 39,000  Level Fort Worth Center
Sat 08:22:27 PM 35.1781 -97.8708 97° East 499 574 39,000  Level Fort Worth Center
Sat 08:23:27 PM 35.1619 -97.7031 97° East 499 574 39,000  Level Fort Worth Center
Sat 08:24:27 PM 35.1456 -97.5303 97° East 499 574 39,000  Level Fort Worth Center
Sat 08:25:27 PM 35.1289 -97.3603 97° East 504 580 39,000  Level Fort Worth Center
Sat 08:26:27 PM 35.1119 -97.1878 97° East 504 580 39,000  Level Fort Worth Center
Sat 08:27:27 PM 35.0950 -97.0203 97° East 504 580 39,000  Level Fort Worth Center
Sat 08:28:27 PM 35.0797 -96.8503 96° East 504 580 39,000  Level Fort Worth Center
Sat 08:29:27 PM 35.0642 -96.6831 96° East 499 574 39,000  Level Fort Worth Center
Sat 08:30:27 PM 35.0464 -96.5133 97° East 499 574 39,000  Level Fort Worth Center
Sat 08:31:27 PM 35.0283 -96.3436 97° East 504 580 39,000  Level Fort Worth Center
Sat 08:32:28 PM 35.0100 -96.1739 97° East 504 580 39,000  Level Fort Worth Center
Sat 08:33:27 PM 34.9917 -96.0044 97° East 504 580 39,000  Level Fort Worth Center
Sat 08:35:30 PM 34.9608 -95.6756 96° East 515 593 39,000  Level Memphis Center
Sat 08:36:30 PM 34.9406 -95.5069 98° East 510 587 39,000  Level Memphis Center
Sat 08:37:30 PM 34.9225 -95.3389 97° East 499 574 39,000  Level Memphis Center
Sat 08:38:30 PM 34.9039 -95.1731 98° East 505 581 39,000  Level Memphis Center
Sat 08:39:30 PM 34.8856 -95.0025 97° East 505 581 39,000  Level Memphis Center
Sat 08:40:30 PM 34.8642 -94.8394 99° East 500 575 39,000  Level Memphis Center
Sat 08:41:30 PM 34.8453 -94.6689 98° East 500 575 39,000  Level Memphis Center
Sat 08:42:30 PM 34.8244 -94.4831 98° East 505 581 39,000  Level Memphis Center
Sat 08:43:30 PM 34.8061 -94.3381 99° East 499 574 39,000  Level Memphis Center
Sat 08:44:30 PM 34.7850 -94.1525 98° East 499 574 39,000  Level Memphis Center
Sat 08:45:30 PM 34.7606 -93.9844 100° East 499 574 39,000  Level Memphis Center
Sat 08:46:30 PM 34.7403 -93.8194 98° East 504 580 39,000  Level Memphis Center
Sat 08:47:30 PM 34.7200 -93.6494 98° East 504 580 39,000  Level Memphis Center
Sat 08:48:30 PM 34.6992 -93.4844 99° East 504 580 39,000  Level Memphis Center
Sat 08:49:30 PM 34.6781 -93.3194 99° East 499 574 39,000  Level Memphis Center
Sat 08:50:30 PM 34.6569 -93.1519 99° East 499 574 39,000  Level Memphis Center
Sat 08:51:30 PM 34.6333 -92.9847 100° East 499 574 39,000  Level Memphis Center
Sat 08:52:30 PM 34.6156 -92.8353 98° East 499 574 39,000  Level Memphis Center
Sat 08:53:30 PM 34.5917 -92.6706 100° East 504 580 39,000  Level Memphis Center
Sat 08:54:30 PM 34.5717 -92.5036 98° East 504 580 39,000  Level Memphis Center
Sat 08:55:30 PM 34.5453 -92.3417 101° East 504 580 39,000  Level Memphis Center
Sat 08:56:30 PM 34.5228 -92.1747 99° East 504 580 39,000  Level Memphis Center
Sat 08:57:30 PM 34.5000 -92.0028 99° East 504 580 39,000  Level Memphis Center
Sat 08:58:30 PM 34.4792 -91.8386 99° East 504 580 39,000  Level Memphis Center
Sat 08:59:30 PM 34.4519 -91.6594 100° East 499 574 39,000  Level Memphis Center
Sat 09:00:30 PM 34.4264 -91.4903 100° East 499 574 39,000  Level Memphis Center
Sat 09:01:30 PM 34.4047 -91.3439 100° East 499 574 39,000  Level Memphis Center
Sat 09:02:30 PM 34.3808 -91.1775 100° East 504 580 39,000  Level Memphis Center
Sat 09:03:30 PM 34.3567 -91.0139 100° East 504 580 39,000  Level Memphis Center
Sat 09:04:30 PM 34.3325 -90.8475 100° East 504 580 39,000  Level Memphis Center
Sat 09:05:30 PM 34.3058 -90.6789 101° East 504 580 39,000  Level Memphis Center
Sat 09:06:30 PM 34.2792 -90.5131 101° East 504 580 39,000  Level Memphis Center
Sat 09:07:30 PM 34.2542 -90.3472 100° East 499 574 39,000  Level Memphis Center
Sat 09:08:30 PM 34.2289 -90.1814 100° East 499 574 39,000  Level Memphis Center
Sat 09:09:30 PM 34.2014 -90.0181 101° East 499 574 39,000  Level Memphis Center
Sat 09:10:30 PM 34.1736 -89.8375 100° East 505 581 39,000  Level Memphis Center
Sat 09:11:30 PM 34.1458 -89.6694 101° East 505 581 39,000 -400 Level Memphis Center
Sat 09:12:30 PM 34.1197 -89.5017 101° East 505 581 38,200 -850 Descending Memphis Center
Sat 09:13:30 PM 34.0933 -89.3364 101° East 497 572 37,300 -950 Descending Memphis Center
Sat 09:14:30 PM 34.0669 -89.1711 101° East 497 572 36,300 -1,400 Descending Memphis Center
Sat 09:15:30 PM 34.0381 -89.0061 102° East 502 578 34,500 -2,100 Descending Memphis Center
Sat 09:16:30 PM 34.0111 -88.8411 101° East 502 578 32,100 -2,600 Descending Memphis Center
Sat 09:17:30 PM 33.9839 -88.6839 102° East 495 570 29,300 -2,600 Descending Memphis Center
Sat 09:18:30 PM 33.9589 -88.5292 101° East 484 557 26,900 -2,300 Descending Memphis Center
Sat 09:19:30 PM 33.9314 -88.3744 102° East 477 549 24,700 -2,100 Descending Memphis Center
Sat 09:20:30 PM 33.9061 -88.2297 102° East 461 531 22,700 -1,897 Descending Memphis Center
Sat 09:22:05 PM 33.8681 -88.0067 102° East 432 497 19,800 -1,800 Descending Atlanta Center
Sat 09:23:00 PM 33.8486 -87.8931 102° East 404 465 18,200 -1,650 Descending Atlanta Center
Sat 09:24:05 PM 33.8239 -87.7494 102° East 398 458 16,500 -1,824 Descending Atlanta Center
Sat 09:25:05 PM 33.7961 -87.6308 106° East 386 444 14,400 -2,550 Descending Atlanta Center
Sat 09:26:05 PM 33.7556 -87.5167 113° Southeast 374 430 11,400 -2,150 Descending Atlanta Center
Sat 09:27:05 PM 33.7147 -87.4103 115° Southeast 362 417 10,100 -1,424 Descending Atlanta Center
Sat 09:28:03 PM 33.6817 -87.3214 114° Southeast 306 352 8,600 -1,513 Descending Atlanta Center
Sat 09:29:04 PM 33.6464 -87.2303 115° Southeast 299 344 7,100 -1,339 Descending Atlanta Center
Sat 09:30:04 PM 33.6194 -87.1469 111° Southeast 273 314 5,900 -942 Descending Atlanta Center
Sat 09:31:05 PM 33.5900 -87.0686 114° Southeast 253 291 5,200 -694 Descending Atlanta Center
Sat 09:32:05 PM 33.5667 -86.9956 111° Southeast 240 276 4,500 -942 Descending Atlanta Center
Sat 09:33:06 PM 33.5392 -86.9297 117° Southeast 211 243 3,300 -1,033 Descending Atlanta Center
Sat 09:34:07 PM 33.5236 -86.8719 108° East 171 197 2,400 -793 Descending Atlanta Center
Sat 09:35:07 PM 33.5228 -86.8272 91° East 128 147 1,700 -694 Descending Atlanta Center
Sat 09:36:08 PM 33.5422 -86.7903 58° Northeast 122 140 1,000 -689 Descending Atlanta Center

Login

Don't have an account? Register now (free) for customized features, flight alerts, and more!